sensor_id;sensor_type;location;lat;lon;timestamp;pressure;altitude;pressure_sealevel;temperature;humidity
21111;BME280;10713;51.912;4.494;2023-09-12T00:01:04;101321.88;;;21.01;100.00
21111;BME280;10713;51.912;4.494;2023-09-12T00:03:30;101309.78;;;20.95;100.00
21111;BME280;10713;51.912;4.494;2023-09-12T00:05:57;101313.03;;;20.87;100.00
21111;BME280;10713;51.912;4.494;2023-09-12T00:08:24;101306.38;;;20.80;100.00
21111;BME280;10713;51.912;4.494;2023-09-12T00:11:00;101315.13;;;20.71;100.00
21111;BME280;10713;51.912;4.494;2023-09-12T00:13:26;101310.63;;;20.72;100.00
21111;BME280;10713;51.912;4.494;2023-09-12T00:15:52;101304.91;;;20.76;100.00
21111;BME280;10713;51.912;4.494;2023-09-12T00:18:17;101307.66;;;20.87;100.00
21111;BME280;10713;51.912;4.494;2023-09-12T00:20:42;101310.22;;;20.89;100.00
21111;BME280;10713;51.912;4.494;2023-09-12T00:23:08;101307.03;;;20.84;100.00
21111;BME280;10713;51.912;4.494;2023-09-12T00:25:33;101303.69;;;20.80;100.00
21111;BME280;10713;51.912;4.494;2023-09-12T00:27:58;101302.75;;;20.81;100.00
21111;BME280;10713;51.912;4.494;2023-09-12T00:30:24;101300.59;;;20.86;100.00
21111;BME280;10713;51.912;4.494;2023-09-12T00:32:49;101294.63;;;20.94;100.00
21111;BME280;10713;51.912;4.494;2023-09-12T00:35:14;101296.22;;;20.97;100.00
21111;BME280;10713;51.912;4.494;2023-09-12T00:37:40;101302.66;;;20.94;100.00
21111;BME280;10713;51.912;4.494;2023-09-12T00:40:06;101293.53;;;20.97;100.00
21111;BME280;10713;51.912;4.494;2023-09-12T00:42:32;101295.38;;;20.96;100.00
21111;BME280;10713;51.912;4.494;2023-09-12T00:44:57;101292.41;;;20.88;100.00
21111;BME280;10713;51.912;4.494;2023-09-12T00:47:23;101293.50;;;20.85;100.00
21111;BME280;10713;51.912;4.494;2023-09-12T00:49:50;101301.78;;;20.82;100.00
21111;BME280;10713;51.912;4.494;2023-09-12T00:52:16;101307.22;;;20.69;100.00
21111;BME280;10713;51.912;4.494;2023-09-12T00:54:43;101308.91;;;20.70;100.00
21111;BME280;10713;51.912;4.494;2023-09-12T00:57:08;101305.56;;;20.56;100.00
21111;BME280;10713;51.912;4.494;2023-09-12T00:59:34;101303.94;;;20.53;100.00
21111;BME280;10713;51.912;4.494;2023-09-12T01:01:59;101297.72;;;20.53;100.00
21111;BME280;10713;51.912;4.494;2023-09-12T01:04:26;101293.63;;;20.60;100.00
21111;BME280;10713;51.912;4.494;2023-09-12T01:06:52;101295.13;;;20.64;100.00
21111;BME280;10713;51.912;4.494;2023-09-12T01:09:17;101288.53;;;20.68;100.00
21111;BME280;10713;51.912;4.494;2023-09-12T01:11:43;101290.25;;;20.69;100.00
21111;BME280;10713;51.912;4.494;2023-09-12T01:14:09;101292.13;;;20.80;100.00
21111;BME280;10713;51.912;4.494;2023-09-12T01:16:34;101285.84;;;20.92;100.00
21111;BME280;10713;51.912;4.494;2023-09-12T01:18:59;101283.41;;;20.89;100.00
21111;BME280;10713;51.912;4.494;2023-09-12T01:21:53;101278.25;;;20.86;100.00
21111;BME280;10713;51.912;4.494;2023-09-12T01:24:47;101283.00;;;20.82;100.00
21111;BME280;10713;51.912;4.494;2023-09-12T01:27:34;101284.06;;;20.80;100.00
21111;BME280;10713;51.912;4.494;2023-09-12T01:30:02;101286.75;;;20.80;100.00
21111;BME280;10713;51.912;4.494;2023-09-12T01:32:32;101274.84;;;20.84;100.00
21111;BME280;10713;51.912;4.494;2023-09-12T01:34:59;101279.97;;;20.87;100.00
21111;BME280;10713;51.912;4.494;2023-09-12T01:37:25;101273.38;;;20.91;100.00
21111;BME280;10713;51.912;4.494;2023-09-12T01:39:51;101273.63;;;20.88;100.00
21111;BME280;10713;51.912;4.494;2023-09-12T01:42:20;101274.19;;;20.80;100.00
21111;BME280;10713;51.912;4.494;2023-09-12T01:44:47;101273.25;;;20.81;100.00
21111;BME280;10713;51.912;4.494;2023-09-12T01:47:14;101266.78;;;20.84;100.00
21111;BME280;10713;51.912;4.494;2023-09-12T01:49:42;101259.06;;;20.79;100.00
21111;BME280;10713;51.912;4.494;2023-09-12T01:52:09;101264.34;;;20.81;100.00
21111;BME280;10713;51.912;4.494;2023-09-12T01:54:36;101270.56;;;20.81;100.00
21111;BME280;10713;51.912;4.494;2023-09-12T01:57:02;101269.81;;;20.79;100.00
21111;BME280;10713;51.912;4.494;2023-09-12T01:59:28;101275.91;;;20.81;100.00
21111;BME280;10713;51.912;4.494;2023-09-12T02:01:54;101268.81;;;20.80;100.00
21111;BME280;10713;51.912;4.494;2023-09-12T02:04:20;101267.25;;;20.54;100.00
21111;BME280;10713;51.912;4.494;2023-09-12T02:06:45;101273.09;;;20.83;100.00
21111;BME280;10713;51.912;4.494;2023-09-12T02:09:10;101271.22;;;20.96;100.00
21111;BME280;10713;51.912;4.494;2023-09-12T02:11:36;101265.50;;;21.01;100.00
21111;BME280;10713;51.912;4.494;2023-09-12T02:14:01;101264.25;;;20.93;100.00
21111;BME280;10713;51.912;4.494;2023-09-12T02:16:27;101263.88;;;20.87;100.00
21111;BME280;10713;51.912;4.494;2023-09-12T02:18:53;101267.25;;;20.78;100.00
21111;BME280;10713;51.912;4.494;2023-09-12T02:21:18;101270.19;;;20.75;100.00
21111;BME280;10713;51.912;4.494;2023-09-12T02:23:43;101270.59;;;20.68;100.00
21111;BME280;10713;51.912;4.494;2023-09-12T02:26:09;101270.19;;;20.75;100.00
21111;BME280;10713;51.912;4.494;2023-09-12T02:28:34;101271.59;;;20.67;100.00
21111;BME280;10713;51.912;4.494;2023-09-12T02:30:59;101281.69;;;20.64;100.00
21111;BME280;10713;51.912;4.494;2023-09-12T02:33:25;101281.41;;;20.56;100.00
21111;BME280;10713;51.912;4.494;2023-09-12T02:35:50;101281.50;;;20.54;100.00
21111;BME280;10713;51.912;4.494;2023-09-12T02:38:17;101272.16;;;20.60;100.00
21111;BME280;10713;51.912;4.494;2023-09-12T02:40:42;101276.03;;;20.56;100.00
21111;BME280;10713;51.912;4.494;2023-09-12T02:43:08;101276.66;;;20.59;100.00
21111;BME280;10713;51.912;4.494;2023-09-12T02:45:33;101275.50;;;20.63;100.00
21111;BME280;10713;51.912;4.494;2023-09-12T02:47:58;101273.06;;;20.72;100.00
21111;BME280;10713;51.912;4.494;2023-09-12T02:50:24;101274.78;;;20.73;100.00
21111;BME280;10713;51.912;4.494;2023-09-12T02:52:49;101266.97;;;20.69;100.00
21111;BME280;10713;51.912;4.494;2023-09-12T02:55:14;101268.69;;;20.70;100.00
21111;BME280;10713;51.912;4.494;2023-09-12T02:57:40;101263.44;;;20.69;100.00
21111;BME280;10713;51.912;4.494;2023-09-12T03:00:06;101261.47;;;20.71;100.00
21111;BME280;10713;51.912;4.494;2023-09-12T03:02:33;101252.81;;;20.67;100.00
21111;BME280;10713;51.912;4.494;2023-09-12T03:04:59;101262.47;;;20.70;100.00
21111;BME280;10713;51.912;4.494;2023-09-12T03:07:24;101254.28;;;20.72;100.00
21111;BME280;10713;51.912;4.494;2023-09-12T03:09:49;101252.25;;;20.75;100.00
21111;BME280;10713;51.912;4.494;2023-09-12T03:12:15;101263.59;;;20.79;100.00
21111;BME280;10713;51.912;4.494;2023-09-12T03:14:40;101256.06;;;20.84;100.00
21111;BME280;10713;51.912;4.494;2023-09-12T03:17:06;101256.78;;;20.86;100.00
21111;BME280;10713;51.912;4.494;2023-09-12T03:19:31;101253.13;;;20.87;100.00
21111;BME280;10713;51.912;4.494;2023-09-12T03:21:57;101253.72;;;20.79;100.00
21111;BME280;10713;51.912;4.494;2023-09-12T03:24:22;101256.41;;;20.79;100.00
21111;BME280;10713;51.912;4.494;2023-09-12T03:26:50;101251.63;;;20.83;100.00
21111;BME280;10713;51.912;4.494;2023-09-12T03:29:17;101255.44;;;20.91;100.00
21111;BME280;10713;51.912;4.494;2023-09-12T03:31:42;101252.94;;;21.01;100.00
21111;BME280;10713;51.912;4.494;2023-09-12T03:34:07;101255.03;;;21.09;100.00
21111;BME280;10713;51.912;4.494;2023-09-12T03:36:33;101252.56;;;21.06;100.00
21111;BME280;10713;51.912;4.494;2023-09-12T03:38:58;101250.88;;;21.05;100.00
21111;BME280;10713;51.912;4.494;2023-09-12T03:41:23;101247.91;;;20.97;100.00
21111;BME280;10713;51.912;4.494;2023-09-12T03:43:53;101255.81;;;20.87;100.00
21111;BME280;10713;51.912;4.494;2023-09-12T03:46:18;101250.56;;;20.85;100.00
21111;BME280;10713;51.912;4.494;2023-09-12T03:48:43;101259.69;;;20.83;100.00
21111;BME280;10713;51.912;4.494;2023-09-12T03:51:09;101250.94;;;20.81;100.00
21111;BME280;10713;51.912;4.494;2023-09-12T03:53:34;101260.69;;;20.82;100.00
21111;BME280;10713;51.912;4.494;2023-09-12T03:56:00;101255.53;;;20.79;100.00
21111;BME280;10713;51.912;4.494;2023-09-12T03:58:25;101258.31;;;20.77;100.00
21111;BME280;10713;51.912;4.494;2023-09-12T04:00:50;101253.44;;;20.71;100.00
21111;BME280;10713;51.912;4.494;2023-09-12T04:03:16;101261.47;;;20.71;100.00
21111;BME280;10713;51.912;4.494;2023-09-12T04:05:41;101257.31;;;20.67;100.00
21111;BME280;10713;51.912;4.494;2023-09-12T04:08:07;101256.56;;;20.65;100.00
21111;BME280;10713;51.912;4.494;2023-09-12T04:10:32;101268.69;;;20.70;100.00
21111;BME280;10713;51.912;4.494;2023-09-12T04:12:58;101264.81;;;20.75;100.00
21111;BME280;10713;51.912;4.494;2023-09-12T04:15:23;101271.50;;;20.80;100.00
21111;BME280;10713;51.912;4.494;2023-09-12T04:17:48;101271.13;;;20.74;100.00
21111;BME280;10713;51.912;4.494;2023-09-12T04:20:14;101272.34;;;20.69;100.00
21111;BME280;10713;51.912;4.494;2023-09-12T04:22:41;101269.00;;;20.66;100.00
21111;BME280;10713;51.912;4.494;2023-09-12T04:25:07;101272.81;;;20.63;100.00
21111;BME280;10713;51.912;4.494;2023-09-12T04:27:32;101272.91;;;20.62;100.00
21111;BME280;10713;51.912;4.494;2023-09-12T04:29:59;101271.53;;;20.56;100.00
21111;BME280;10713;51.912;4.494;2023-09-12T04:32:24;101267.25;;;20.54;100.00
21111;BME280;10713;51.912;4.494;2023-09-12T04:34:50;101272.06;;;20.48;100.00
21111;BME280;10713;51.912;4.494;2023-09-12T04:37:16;101268.75;;;20.45;100.00
21111;BME280;10713;51.912;4.494;2023-09-12T04:39:41;101275.44;;;20.39;100.00
21111;BME280;10713;51.912;4.494;2023-09-12T04:42:06;101273.59;;;20.40;100.00
21111;BME280;10713;51.912;4.494;2023-09-12T04:44:36;101267.69;;;20.47;100.00
21111;BME280;10713;51.912;4.494;2023-09-12T04:47:02;101266.31;;;20.55;100.00
21111;BME280;10713;51.912;4.494;2023-09-12T04:49:28;101254.81;;;20.53;100.00
21111;BME280;10713;51.912;4.494;2023-09-12T04:51:53;101263.72;;;20.53;100.00
21111;BME280;10713;51.912;4.494;2023-09-12T04:54:18;101267.69;;;20.47;100.00
21111;BME280;10713;51.912;4.494;2023-09-12T04:56:44;101267.69;;;20.47;100.00
21111;BME280;10713;51.912;4.494;2023-09-12T04:59:09;101267.59;;;20.49;100.00
21111;BME280;10713;51.912;4.494;2023-09-12T05:01:34;101261.34;;;20.48;100.00
21111;BME280;10713;51.912;4.494;2023-09-12T05:04:00;101267.06;;;20.44;100.00
21111;BME280;10713;51.912;4.494;2023-09-12T05:06:25;101275.56;;;20.38;100.00
21111;BME280;10713;51.912;4.494;2023-09-12T05:08:50;101274.34;;;20.42;100.00
21111;BME280;10713;51.912;4.494;2023-09-12T05:11:17;101276.16;;;20.54;100.00
21111;BME280;10713;51.912;4.494;2023-09-12T05:13:42;101271.31;;;20.59;100.00
21111;BME280;10713;51.912;4.494;2023-09-12T05:16:07;101273.78;;;20.50;100.00
21111;BME280;10713;51.912;4.494;2023-09-12T05:18:33;101277.13;;;20.53;100.00
21111;BME280;10713;51.912;4.494;2023-09-12T05:20:58;101272.66;;;20.65;100.00
21111;BME280;10713;51.912;4.494;2023-09-12T05:23:23;101267.03;;;20.81;100.00
21111;BME280;10713;51.912;4.494;2023-09-12T05:25:49;101270.84;;;20.89;100.00
21111;BME280;10713;51.912;4.494;2023-09-12T05:28:14;101268.25;;;20.88;100.00
21111;BME280;10713;51.912;4.494;2023-09-12T05:30:42;101273.38;;;20.91;100.00
21111;BME280;10713;51.912;4.494;2023-09-12T05:33:07;101269.38;;;20.97;100.00
21111;BME280;10713;51.912;4.494;2023-09-12T05:35:32;101269.78;;;21.03;100.00
21111;BME280;10713;51.912;4.494;2023-09-12T05:37:58;101276.63;;;21.07;100.00
21111;BME280;10713;51.912;4.494;2023-09-12T05:40:23;101273.84;;;21.09;100.00
21111;BME280;10713;51.912;4.494;2023-09-12T05:42:49;101272.22;;;21.06;100.00
21111;BME280;10713;51.912;4.494;2023-09-12T05:45:14;101276.28;;;21.12;100.00
21111;BME280;10713;51.912;4.494;2023-09-12T05:47:39;101275.91;;;21.17;100.00
21111;BME280;10713;51.912;4.494;2023-09-12T05:50:05;101276.66;;;21.19;100.00
21111;BME280;10713;51.912;4.494;2023-09-12T05:52:34;101272.94;;;21.08;100.00
21111;BME280;10713;51.912;4.494;2023-09-12T05:55:00;101272.69;;;21.00;100.00
21111;BME280;10713;51.912;4.494;2023-09-12T05:57:25;101283.81;;;21.07;100.00
21111;BME280;10713;51.912;4.494;2023-09-12T05:59:51;101279.31;;;21.07;100.00
21111;BME280;10713;51.912;4.494;2023-09-12T06:02:16;101283.94;;;21.05;100.00
21111;BME280;10713;51.912;4.494;2023-09-12T06:04:43;101282.22;;;21.04;100.00
21111;BME280;10713;51.912;4.494;2023-09-12T06:07:08;101282.00;;;21.07;100.00
21111;BME280;10713;51.912;4.494;2023-09-12T06:09:33;101280.75;;;21.11;100.00
21111;BME280;10713;51.912;4.494;2023-09-12T06:11:59;101282.22;;;21.04;100.00
21111;BME280;10713;51.912;4.494;2023-09-12T06:14:24;101292.34;;;21.01;100.00
21111;BME280;10713;51.912;4.494;2023-09-12T06:16:49;101296.25;;;21.08;100.00
21111;BME280;10713;51.912;4.494;2023-09-12T06:19:15;101282.09;;;21.06;100.00
21111;BME280;10713;51.912;4.494;2023-09-12T06:21:41;101296.84;;;21.00;100.00
21111;BME280;10713;51.912;4.494;2023-09-12T06:24:14;101295.88;;;21.01;100.00
21111;BME280;10713;51.912;4.494;2023-09-12T06:26:40;101297.84;;;21.10;100.00
21111;BME280;10713;51.912;4.494;2023-09-12T06:29:05;101300.31;;;21.13;100.00
21111;BME280;10713;51.912;4.494;2023-09-12T06:31:31;101302.25;;;21.11;100.00
21111;BME280;10713;51.912;4.494;2023-09-12T06:33:58;101304.06;;;21.11;100.00
21111;BME280;10713;51.912;4.494;2023-09-12T06:36:27;101295.91;;;21.12;100.00
21111;BME280;10713;51.912;4.494;2023-09-12T06:38:58;101302.38;;;21.10;100.00
21111;BME280;10713;51.912;4.494;2023-09-12T06:43:49;101305.13;;;21.32;100.00
21111;BME280;10713;51.912;4.494;2023-09-12T06:46:15;101311.41;;;21.44;100.00
21111;BME280;10713;51.912;4.494;2023-09-12T06:48:43;101305.78;;;21.47;100.00
21111;BME280;10713;51.912;4.494;2023-09-12T06:51:09;101308.59;;;21.46;100.00
21111;BME280;10713;51.912;4.494;2023-09-12T06:53:35;101311.88;;;21.38;100.00
21111;BME280;10713;51.912;4.494;2023-09-12T06:56:02;101312.72;;;21.39;100.00
21111;BME280;10713;51.912;4.494;2023-09-12T06:58:28;101312.63;;;21.51;100.00
21111;BME280;10713;51.912;4.494;2023-09-12T07:00:53;101314.63;;;21.61;100.00
21111;BME280;10713;51.912;4.494;2023-09-12T07:03:18;101307.16;;;21.75;100.00
21111;BME280;10713;51.912;4.494;2023-09-12T07:05:44;101307.66;;;21.92;100.00
21111;BME280;10713;51.912;4.494;2023-09-12T07:08:10;101317.94;;;22.09;100.00
21111;BME280;10713;51.912;4.494;2023-09-12T07:10:35;101313.84;;;22.15;100.00
21111;BME280;10713;51.912;4.494;2023-09-12T07:13:01;101321.00;;;22.27;100.00
21111;BME280;10713;51.912;4.494;2023-09-12T07:15:27;101322.19;;;22.34;100.00
21111;BME280;10713;51.912;4.494;2023-09-12T07:17:53;101308.63;;;22.36;100.00
21111;BME280;10713;51.912;4.494;2023-09-12T07:20:18;101305.19;;;22.34;100.00
21111;BME280;10713;51.912;4.494;2023-09-12T07:22:44;101305.09;;;22.35;100.00
21111;BME280;10713;51.912;4.494;2023-09-12T07:25:10;101317.78;;;22.44;100.00
21111;BME280;10713;51.912;4.494;2023-09-12T07:27:37;101322.47;;;22.63;100.00
21111;BME280;10713;51.912;4.494;2023-09-12T07:30:04;101313.47;;;22.85;100.00
21111;BME280;10713;51.912;4.494;2023-09-12T07:32:29;101315.59;;;23.14;100.00
21111;BME280;10713;51.912;4.494;2023-09-12T07:34:55;101318.09;;;23.27;100.00
21111;BME280;10713;51.912;4.494;2023-09-12T07:37:21;101315.78;;;23.43;100.00
21111;BME280;10713;51.912;4.494;2023-09-12T07:39:46;101309.78;;;23.60;100.00
21111;BME280;10713;51.912;4.494;2023-09-12T07:42:12;101307.78;;;24.14;100.00
21111;BME280;10713;51.912;4.494;2023-09-12T07:44:37;101301.56;;;24.93;100.00
21111;BME280;10713;51.912;4.494;2023-09-12T07:47:03;101299.59;;;26.09;100.00
21111;BME280;10713;51.912;4.494;2023-09-12T07:49:28;101301.06;;;27.38;100.00
21111;BME280;10713;51.912;4.494;2023-09-12T07:51:54;101289.09;;;28.51;100.00
21111;BME280;10713;51.912;4.494;2023-09-12T07:54:21;101283.03;;;29.23;100.00
21111;BME280;10713;51.912;4.494;2023-09-12T07:56:47;101277.22;;;29.42;100.00
21111;BME280;10713;51.912;4.494;2023-09-12T07:59:12;101287.44;;;29.24;100.00
21111;BME280;10713;51.912;4.494;2023-09-12T08:01:39;101284.41;;;29.03;100.00
21111;BME280;10713;51.912;4.494;2023-09-12T08:04:04;101295.38;;;28.60;100.00
21111;BME280;10713;51.912;4.494;2023-09-12T08:06:30;101294.38;;;28.11;100.00
21111;BME280;10713;51.912;4.494;2023-09-12T08:08:56;101292.19;;;27.54;100.00
21111;BME280;10713;51.912;4.494;2023-09-12T08:11:21;101298.53;;;27.36;100.00
21111;BME280;10713;51.912;4.494;2023-09-12T08:13:49;101292.97;;;27.02;100.00
21111;BME280;10713;51.912;4.494;2023-09-12T08:16:15;101292.75;;;26.78;100.00
21111;BME280;10713;51.912;4.494;2023-09-12T08:18:40;101296.72;;;26.65;100.00
21111;BME280;10713;51.912;4.494;2023-09-12T08:21:05;101298.13;;;26.42;100.00
21111;BME280;10713;51.912;4.494;2023-09-12T08:23:31;101302.28;;;26.36;100.00
21111;BME280;10713;51.912;4.494;2023-09-12T08:25:56;101296.66;;;26.02;100.00
21111;BME280;10713;51.912;4.494;2023-09-12T08:28:22;101306.38;;;25.75;100.00
21111;BME280;10713;51.912;4.494;2023-09-12T08:30:47;101306.09;;;25.88;100.00
21111;BME280;10713;51.912;4.494;2023-09-12T08:33:12;101300.00;;;26.14;100.00
21111;BME280;10713;51.912;4.494;2023-09-12T08:35:38;101296.22;;;26.52;100.00
21111;BME280;10713;51.912;4.494;2023-09-12T08:38:03;101300.34;;;26.74;100.00
21111;BME280;10713;51.912;4.494;2023-09-12T08:40:29;101295.16;;;26.81;100.00
21111;BME280;10713;51.912;4.494;2023-09-12T08:42:57;101302.59;;;26.79;100.00
21111;BME280;10713;51.912;4.494;2023-09-12T08:45:23;101299.72;;;26.80;100.00
21111;BME280;10713;51.912;4.494;2023-09-12T08:47:53;101293.47;;;26.62;100.00
21111;BME280;10713;51.912;4.494;2023-09-12T08:50:20;101293.69;;;26.50;100.00
21111;BME280;10713;51.912;4.494;2023-09-12T08:52:46;101284.56;;;26.51;100.00
21111;BME280;10713;51.912;4.494;2023-09-12T08:55:13;101292.22;;;26.74;100.00
21111;BME280;10713;51.912;4.494;2023-09-12T08:57:41;101293.25;;;26.73;100.00
21111;BME280;10713;51.912;4.494;2023-09-12T09:00:07;101294.13;;;26.64;100.00
21111;BME280;10713;51.912;4.494;2023-09-12T09:02:40;101293.38;;;26.54;100.00
21111;BME280;10713;51.912;4.494;2023-09-12T09:05:06;101292.25;;;26.46;100.00
21111;BME280;10713;51.912;4.494;2023-09-12T09:07:33;101295.38;;;26.24;100.00
21111;BME280;10713;51.912;4.494;2023-09-12T09:10:02;101299.25;;;25.94;100.00
21111;BME280;10713;51.912;4.494;2023-09-12T09:12:29;101305.69;;;25.83;100.00
21111;BME280;10713;51.912;4.494;2023-09-12T09:14:54;101302.59;;;25.68;100.00
21111;BME280;10713;51.912;4.494;2023-09-12T09:17:19;101305.25;;;25.78;100.00
21111;BME280;10713;51.912;4.494;2023-09-12T09:19:45;101302.16;;;25.73;100.00
21111;BME280;10713;51.912;4.494;2023-09-12T09:22:11;101310.91;;;25.47;100.00
21111;BME280;10713;51.912;4.494;2023-09-12T09:24:37;101310.31;;;25.53;100.00
21111;BME280;10713;51.912;4.494;2023-09-12T09:27:03;101300.47;;;25.62;100.00
21111;BME280;10713;51.912;4.494;2023-09-12T09:29:29;101304.56;;;25.66;100.00
21111;BME280;10713;51.912;4.494;2023-09-12T09:31:58;101305.03;;;25.61;100.00
21111;BME280;10713;51.912;4.494;2023-09-12T09:34:24;101312.19;;;25.53;100.00
21111;BME280;10713;51.912;4.494;2023-09-12T09:36:53;101315.91;;;25.13;100.00
21111;BME280;10713;51.912;4.494;2023-09-12T09:39:22;101327.13;;;25.08;100.00
21111;BME280;10713;51.912;4.494;2023-09-12T09:41:52;101326.56;;;25.05;100.00
21111;BME280;10713;51.912;4.494;2023-09-12T09:44:18;101328.44;;;25.14;100.00
21111;BME280;10713;51.912;4.494;2023-09-12T09:46:44;101323.97;;;25.52;100.00
21111;BME280;10713;51.912;4.494;2023-09-12T09:49:10;101331.91;;;25.63;100.00
21111;BME280;10713;51.912;4.494;2023-09-12T09:51:45;101320.53;;;25.59;100.00
21111;BME280;10713;51.912;4.494;2023-09-12T09:54:14;101325.09;;;25.49;100.00
21111;BME280;10713;51.912;4.494;2023-09-12T09:56:50;101320.59;;;25.50;100.00
21111;BME280;10713;51.912;4.494;2023-09-12T09:59:21;101326.53;;;25.53;100.00
21111;BME280;10713;51.912;4.494;2023-09-12T10:01:48;101322.78;;;25.74;100.00
21111;BME280;10713;51.912;4.494;2023-09-12T10:04:14;101324.69;;;26.01;100.00
21111;BME280;10713;51.912;4.494;2023-09-12T10:06:44;101321.03;;;26.20;100.00
21111;BME280;10713;51.912;4.494;2023-09-12T10:09:12;101314.69;;;26.39;100.00
21111;BME280;10713;51.912;4.494;2023-09-12T10:11:39;101314.41;;;26.95;100.00
21111;BME280;10713;51.912;4.494;2023-09-12T10:14:06;101301.28;;;27.71;100.00
21111;BME280;10713;51.912;4.494;2023-09-12T10:16:40;101294.97;;;28.30;100.00
21111;BME280;10713;51.912;4.494;2023-09-12T10:19:15;101298.78;;;28.54;100.00
21111;BME280;10713;51.912;4.494;2023-09-12T10:21:50;101301.75;;;28.35;100.00
21111;BME280;10713;51.912;4.494;2023-09-12T10:24:19;101305.91;;;28.63;100.00
21111;BME280;10713;51.912;4.494;2023-09-12T10:26:48;101302.19;;;28.89;100.00
21111;BME280;10713;51.912;4.494;2023-09-12T10:29:15;101303.91;;;28.90;100.00
21111;BME280;10713;51.912;4.494;2023-09-12T10:31:41;101295.59;;;28.91;100.00
21111;BME280;10713;51.912;4.494;2023-09-12T10:34:08;101296.75;;;28.81;100.00
21111;BME280;10713;51.912;4.494;2023-09-12T10:36:39;101297.44;;;28.74;100.00
21111;BME280;10713;51.912;4.494;2023-09-12T10:39:06;101296.06;;;28.54;100.00
21111;BME280;10713;51.912;4.494;2023-09-12T10:41:32;101292.16;;;28.06;100.00
21111;BME280;10713;51.912;4.494;2023-09-12T10:43:59;101296.22;;;27.76;100.00
21111;BME280;10713;51.912;4.494;2023-09-12T10:46:26;101278.47;;;27.55;100.00
21111;BME280;10713;51.912;4.494;2023-09-12T10:48:52;101276.94;;;27.27;100.00
21111;BME280;10713;51.912;4.494;2023-09-12T10:51:19;101279.00;;;26.71;100.00
21111;BME280;10713;51.912;4.494;2023-09-12T10:53:48;101266.94;;;26.38;100.00
21111;BME280;10713;51.912;4.494;2023-09-12T11:01:29;101270.41;;;26.76;100.00
21111;BME280;10713;51.912;4.494;2023-09-12T11:03:55;101270.94;;;26.97;100.00
21111;BME280;10713;51.912;4.494;2023-09-12T11:06:23;101255.81;;;27.38;100.00
21111;BME280;10713;51.912;4.494;2023-09-12T11:11:41;101264.09;;;27.89;100.00
21111;BME280;10713;51.912;4.494;2023-09-12T11:14:08;101261.03;;;28.35;100.00
21111;BME280;10713;51.912;4.494;2023-09-12T11:16:34;101263.31;;;28.80;100.00
21111;BME280;10713;51.912;4.494;2023-09-12T11:19:19;101268.59;;;29.31;100.00
21111;BME280;10713;51.912;4.494;2023-09-12T11:21:53;101273.63;;;29.50;100.00
21111;BME280;10713;51.912;4.494;2023-09-12T11:24:20;101269.91;;;29.43;100.00
21111;BME280;10713;51.912;4.494;2023-09-12T11:27:01;101269.59;;;29.30;100.00
21111;BME280;10713;51.912;4.494;2023-09-12T11:29:39;101272.66;;;29.35;100.00
21111;BME280;10713;51.912;4.494;2023-09-12T11:32:07;101274.16;;;29.46;100.00
21111;BME280;10713;51.912;4.494;2023-09-12T11:34:37;101281.47;;;29.45;100.00
21111;BME280;10713;51.912;4.494;2023-09-12T11:37:04;101275.66;;;29.56;100.00
21111;BME280;10713;51.912;4.494;2023-09-12T11:39:34;101276.03;;;29.37;100.00
21111;BME280;10713;51.912;4.494;2023-09-12T11:42:01;101275.22;;;29.20;100.00
21111;BME280;10713;51.912;4.494;2023-09-12T11:44:27;101277.94;;;29.12;100.00
21111;BME280;10713;51.912;4.494;2023-09-12T11:46:54;101277.25;;;29.18;100.00
21111;BME280;10713;51.912;4.494;2023-09-12T11:49:20;101279.97;;;29.10;100.00
21111;BME280;10713;51.912;4.494;2023-09-12T11:51:53;101278.25;;;28.92;100.00
21111;BME280;10713;51.912;4.494;2023-09-12T11:54:29;101266.88;;;28.97;100.00
21111;BME280;10713;51.912;4.494;2023-09-12T11:56:54;101276.22;;;28.78;100.00
21111;BME280;10713;51.912;4.494;2023-09-12T11:59:23;101271.63;;;28.70;100.00
21111;BME280;10713;51.912;4.494;2023-09-12T12:01:48;101280.06;;;28.43;100.00
21111;BME280;10713;51.912;4.494;2023-09-12T12:04:14;101282.72;;;27.84;100.00
21111;BME280;10713;51.912;4.494;2023-09-12T12:06:40;101292.19;;;27.54;100.00
21111;BME280;10713;51.912;4.494;2023-09-12T12:09:06;101284.69;;;27.74;100.00
21111;BME280;10713;51.912;4.494;2023-09-12T12:11:32;101283.34;;;28.12;100.00
21111;BME280;10713;51.912;4.494;2023-09-12T12:13:57;101274.19;;;28.05;100.00
21111;BME280;10713;51.912;4.494;2023-09-12T12:16:25;101275.13;;;27.88;100.00
21111;BME280;10713;51.912;4.494;2023-09-12T12:18:51;101272.56;;;27.86;100.00
21111;BME280;10713;51.912;4.494;2023-09-12T12:21:20;101265.84;;;28.06;100.00
21111;BME280;10713;51.912;4.494;2023-09-12T12:23:45;101268.97;;;28.20;100.00
21111;BME280;10713;51.912;4.494;2023-09-12T12:26:11;101265.75;;;28.24;100.00
21111;BME280;10713;51.912;4.494;2023-09-12T12:28:37;101268.50;;;27.82;100.00
21111;BME280;10713;51.912;4.494;2023-09-12T12:31:02;101274.78;;;27.30;100.00
21111;BME280;10713;51.912;4.494;2023-09-12T12:33:28;101275.09;;;27.27;100.00
21111;BME280;10713;51.912;4.494;2023-09-12T12:36:04;101269.94;;;27.42;100.00
21111;BME280;10713;51.912;4.494;2023-09-12T12:38:38;101273.06;;;27.29;100.00
21111;BME280;10713;51.912;4.494;2023-09-12T12:41:04;101272.97;;;27.39;100.00
21111;BME280;10713;51.912;4.494;2023-09-12T12:43:30;101268.63;;;27.54;100.00
21111;BME280;10713;51.912;4.494;2023-09-12T12:45:58;101260.69;;;27.61;100.00
21111;BME280;10713;51.912;4.494;2023-09-12T12:48:34;101252.03;;;27.57;100.00